Time;durP1;ratioP1;P1;durP2;ratioP2;P2;SDS_P1;SDS_P2;PMS_P1;PMS_P2;Temp;Humidity;BMP_temperature;BMP_pressure;BME280_temperature;BME280_humidity;BME280_pressure;Samples;Min_cycle;Max_cycle;Signal;HPM_P1;HPM_P2
2023/01/15 00:02:11;;;;;;;17.58;2.65;;;;;;;;;;4970273;28;20058;-70
2023/01/15 00:04:38;;;;;;;18.42;2.08;;;;;;;;;;4969838;28;20047;-70
2023/01/15 00:07:06;;;;;;;21.85;2.63;;;;;;;;;;4982435;28;20047;-71
2023/01/15 00:09:33;;;;;;;17.23;2.17;;;;;;;;;;4969224;28;20138;-70
2023/01/15 00:12:01;;;;;;;18.02;2.13;;;;;;;;;;4967697;28;20046;-71
2023/01/15 00:14:28;;;;;;;17.42;1.75;;;;;;;;;;4967859;28;20117;-70
2023/01/15 00:16:55;;;;;;;17.13;2.42;;;;;;;;;;4968810;28;20050;-70
2023/01/15 00:19:24;;;;;;;17.17;1.88;;;;;;;;;;4969298;28;20055;-70
2023/01/15 00:21:52;;;;;;;24.75;2.78;;;;;;;;;;4967086;28;20051;-70
2023/01/15 00:29:49;;;;;;;24.48;2.53;;;;;;;;;;4965117;28;20449;-71
2023/01/15 00:32:16;;;;;;;19.55;2.47;;;;;;;;;;4964829;28;20051;-70
2023/01/15 00:34:45;;;;;;;19.30;2.50;;;;;;;;;;4968050;28;20513;-71
2023/01/15 00:37:12;;;;;;;17.42;2.53;;;;;;;;;;4964884;28;20058;-71
2023/01/15 00:39:39;;;;;;;16.25;1.98;;;;;;;;;;4969375;28;20063;-70
2023/01/15 00:42:07;;;;;;;16.60;2.42;;;;;;;;;;4965193;28;20058;-70
2023/01/15 00:44:34;;;;;;;19.35;2.15;;;;;;;;;;4968240;28;20487;-71
2023/01/15 00:47:01;;;;;;;16.95;2.13;;;;;;;;;;4969332;28;20058;-70
2023/01/15 00:49:28;;;;;;;20.75;2.60;;;;;;;;;;4966986;28;20069;-70
2023/01/15 00:51:57;;;;;;;19.98;1.98;;;;;;;;;;4967711;28;20478;-70
2023/01/15 00:54:24;;;;;;;17.33;3.00;;;;;;;;;;4967492;28;20051;-70
2023/01/15 00:56:51;;;;;;;18.05;1.95;;;;;;;;;;4962816;28;20074;-70
2023/01/15 00:59:19;;;;;;;19.90;2.70;;;;;;;;;;4964300;28;20058;-70
2023/01/15 01:01:46;;;;;;;23.85;2.42;;;;;;;;;;4966150;28;20421;-70
2023/01/15 01:04:13;;;;;;;16.30;2.25;;;;;;;;;;4968487;28;20057;-70
2023/01/15 01:06:40;;;;;;;17.13;1.65;;;;;;;;;;4966715;28;20055;-70
2023/01/15 01:09:11;;;;;;;23.60;2.40;;;;;;;;;;4970009;28;20047;-70
2023/01/15 01:11:38;;;;;;;13.88;2.28;;;;;;;;;;4964800;28;20043;-70
2023/01/15 01:14:05;;;;;;;14.68;1.92;;;;;;;;;;4968076;28;21175;-70
2023/01/15 01:16:34;;;;;;;14.63;2.10;;;;;;;;;;4964820;28;20059;-70
2023/01/15 01:19:03;;;;;;;19.30;1.83;;;;;;;;;;4969342;28;20058;-70
2023/01/15 01:21:30;;;;;;;16.60;2.28;;;;;;;;;;4965288;28;20054;-70
2023/01/15 01:23:58;;;;;;;19.27;2.40;;;;;;;;;;4967851;28;20055;-70
2023/01/15 01:26:27;;;;;;;19.60;2.70;;;;;;;;;;4968754;28;20051;-70
2023/01/15 01:28:55;;;;;;;20.42;2.70;;;;;;;;;;4968799;28;20061;-70
2023/01/15 01:31:22;;;;;;;19.95;2.17;;;;;;;;;;4971956;28;20051;-70
2023/01/15 01:33:49;;;;;;;15.80;2.28;;;;;;;;;;4972575;28;20058;-70
2023/01/15 01:36:17;;;;;;;15.35;1.95;;;;;;;;;;4970052;28;20058;-70
2023/01/15 01:38:44;;;;;;;20.13;2.22;;;;;;;;;;4970295;28;20061;-70
2023/01/15 01:41:12;;;;;;;19.75;2.17;;;;;;;;;;4968246;28;20141;-70
2023/01/15 01:43:54;;;;;;;21.52;2.53;;;;;;;;;;4968473;28;20042;-70
2023/01/15 01:46:21;;;;;;;16.13;2.45;;;;;;;;;;4970552;28;20077;-70
2023/01/15 01:48:49;;;;;;;15.57;2.05;;;;;;;;;;4971933;28;20050;-70
2023/01/15 01:51:17;;;;;;;19.48;2.22;;;;;;;;;;4964060;28;20042;-70
2023/01/15 01:53:44;;;;;;;14.57;2.08;;;;;;;;;;4964176;28;20061;-70
2023/01/15 01:56:16;;;;;;;14.82;2.70;;;;;;;;;;4969803;28;20560;-70
2023/01/15 01:58:44;;;;;;;15.13;2.80;;;;;;;;;;4967087;28;20440;-70
2023/01/15 02:01:13;;;;;;;18.58;2.25;;;;;;;;;;4971746;28;20050;-70
2023/01/15 02:03:40;;;;;;;10.77;1.90;;;;;;;;;;4968718;28;20063;-70
2023/01/15 02:06:09;;;;;;;32.33;3.45;;;;;;;;;;4967368;28;20058;-70
2023/01/15 02:08:38;;;;;;;18.35;1.98;;;;;;;;;;4969821;28;20505;-70
2023/01/15 02:11:06;;;;;;;17.02;2.22;;;;;;;;;;4970456;28;20047;-70
2023/01/15 02:13:36;;;;;;;25.10;2.63;;;;;;;;;;4969933;28;20061;-70
2023/01/15 02:16:05;;;;;;;18.23;2.60;;;;;;;;;;4964858;28;20047;-70
2023/01/15 02:18:37;;;;;;;22.63;2.20;;;;;;;;;;4969218;28;20059;-70
2023/01/15 02:21:07;;;;;;;22.58;2.70;;;;;;;;;;4969352;28;20054;-70
2023/01/15 02:23:50;;;;;;;13.43;2.85;;;;;;;;;;4969697;28;20157;-70
2023/01/15 02:26:27;;;;;;;19.33;2.78;;;;;;;;;;4965955;28;20054;-70
2023/01/15 02:28:57;;;;;;;19.58;2.65;;;;;;;;;;4969634;28;20051;-70
2023/01/15 02:31:27;;;;;;;19.67;2.50;;;;;;;;;;4969205;28;20127;-70
2023/01/15 02:33:57;;;;;;;12.07;1.73;;;;;;;;;;4966576;28;20057;-70
2023/01/15 02:36:27;;;;;;;22.20;2.42;;;;;;;;;;4967335;28;20098;-70
2023/01/15 02:38:56;;;;;;;17.90;2.28;;;;;;;;;;4962753;28;20051;-70
2023/01/15 02:41:26;;;;;;;19.73;2.45;;;;;;;;;;4969304;28;20058;-70
2023/01/15 02:43:54;;;;;;;23.50;2.70;;;;;;;;;;4970986;28;20051;-70
2023/01/15 02:46:25;;;;;;;22.73;3.20;;;;;;;;;;4965713;28;20050;-70
2023/01/15 02:48:53;;;;;;;18.95;2.60;;;;;;;;;;4966148;28;20051;-70
2023/01/15 02:51:23;;;;;;;19.05;1.73;;;;;;;;;;4968933;28;20047;-70
2023/01/15 02:53:52;;;;;;;17.10;3.05;;;;;;;;;;4966387;28;20052;-69
2023/01/15 02:56:20;;;;;;;18.95;2.20;;;;;;;;;;4968068;28;20070;-70
2023/01/15 02:58:48;;;;;;;19.27;3.03;;;;;;;;;;4971731;28;20506;-70
2023/01/15 03:01:19;;;;;;;18.30;2.38;;;;;;;;;;4971190;28;20058;-70
2023/01/15 03:03:50;;;;;;;20.83;2.15;;;;;;;;;;4968275;28;20050;-70
2023/01/15 03:06:20;;;;;;;8.50;1.50;;;;;;;;;;4968663;28;20126;-69
2023/01/15 03:08:47;;;;;;;23.45;2.60;;;;;;;;;;4969752;28;20051;-70
2023/01/15 03:11:15;;;;;;;20.88;2.50;;;;;;;;;;4969664;28;20049;-70
2023/01/15 03:13:46;;;;;;;19.75;2.38;;;;;;;;;;4968843;28;20498;-70
2023/01/15 03:16:36;;;;;;;13.57;2.20;;;;;;;;;;4967492;28;20517;-70
2023/01/15 03:19:07;;;;;;;16.77;1.92;;;;;;;;;;4965465;28;20057;-69
2023/01/15 03:21:39;;;;;;;18.23;2.83;;;;;;;;;;4968086;28;20066;-70
2023/01/15 03:24:07;;;;;;;14.43;2.28;;;;;;;;;;4967639;28;20047;-70
2023/01/15 03:26:34;;;;;;;16.27;1.95;;;;;;;;;;4970598;28;20039;-70
2023/01/15 03:29:04;;;;;;;13.27;1.90;;;;;;;;;;4971290;28;20474;-70
2023/01/15 03:31:31;;;;;;;19.63;2.22;;;;;;;;;;4970243;28;20058;-70
2023/01/15 03:33:59;;;;;;;12.93;1.98;;;;;;;;;;4970288;28;20050;-70
2023/01/15 03:36:27;;;;;;;21.70;2.28;;;;;;;;;;4968437;28;20054;-70
2023/01/15 03:38:55;;;;;;;25.35;2.40;;;;;;;;;;4971233;28;20494;-70
2023/01/15 03:41:26;;;;;;;17.83;1.88;;;;;;;;;;4967076;28;20063;-70
2023/01/15 03:43:57;;;;;;;20.60;2.33;;;;;;;;;;4967354;28;20378;-70
2023/01/15 03:46:32;;;;;;;17.10;2.58;;;;;;;;;;4969808;28;20501;-70
2023/01/15 03:49:02;;;;;;;16.75;2.08;;;;;;;;;;4965963;28;20490;-70
2023/01/15 03:51:34;;;;;;;14.55;2.10;;;;;;;;;;4966515;28;20501;-69
2023/01/15 03:54:03;;;;;;;14.85;1.77;;;;;;;;;;4966279;28;20057;-70
2023/01/15 03:56:32;;;;;;;17.67;2.13;;;;;;;;;;4967439;28;20074;-69
2023/01/15 03:59:02;;;;;;;12.23;1.73;;;;;;;;;;4969933;28;20402;-70
2023/01/15 04:01:33;;;;;;;14.52;1.80;;;;;;;;;;4970388;28;20050;-70
2023/01/15 04:04:01;;;;;;;12.80;1.65;;;;;;;;;;4964860;28;20113;-70
2023/01/15 04:06:29;;;;;;;18.05;2.15;;;;;;;;;;4969084;28;20054;-69
2023/01/15 04:08:58;;;;;;;20.48;2.83;;;;;;;;;;4966661;28;20063;-70
2023/01/15 04:11:26;;;;;;;12.05;2.20;;;;;;;;;;4965201;28;20051;-70
2023/01/15 04:13:54;;;;;;;17.95;1.95;;;;;;;;;;4965390;28;20051;-69
2023/01/15 04:16:24;;;;;;;11.65;1.63;;;;;;;;;;4965225;28;20541;-70
2023/01/15 04:18:52;;;;;;;17.52;2.38;;;;;;;;;;4970568;28;20090;-69
2023/01/15 04:21:19;;;;;;;18.30;2.30;;;;;;;;;;4970463;28;20069;-70
2023/01/15 04:23:46;;;;;;;20.85;2.35;;;;;;;;;;4964138;28;20508;-70
2023/01/15 04:26:15;;;;;;;9.77;1.73;;;;;;;;;;4965385;28;20043;-69
2023/01/15 04:28:42;;;;;;;17.35;2.15;;;;;;;;;;4964967;28;20054;-69
2023/01/15 04:31:09;;;;;;;15.45;1.65;;;;;;;;;;4966323;28;20057;-69
2023/01/15 04:33:38;;;;;;;18.20;3.38;;;;;;;;;;4962748;28;20051;-69
2023/01/15 04:36:05;;;;;;;22.50;2.40;;;;;;;;;;4964166;28;20502;-69
2023/01/15 04:38:32;;;;;;;23.40;2.53;;;;;;;;;;4966794;28;20058;-70
2023/01/15 04:46:32;;;;;;;21.45;2.10;;;;;;;;;;4967440;28;20051;-69
2023/01/15 04:49:00;;;;;;;11.32;1.63;;;;;;;;;;4967197;28;20058;-70
2023/01/15 04:51:27;;;;;;;23.35;2.22;;;;;;;;;;4967337;28;20059;-69
2023/01/15 04:53:54;;;;;;;16.25;2.45;;;;;;;;;;4969395;28;20043;-69
2023/01/15 04:56:21;;;;;;;24.15;2.10;;;;;;;;;;4969908;28;20255;-69
2023/01/15 04:58:50;;;;;;;18.13;2.17;;;;;;;;;;4968128;28;20062;-70
2023/01/15 05:01:18;;;;;;;16.35;1.95;;;;;;;;;;4965847;28;20561;-70
2023/01/15 05:03:45;;;;;;;19.27;2.63;;;;;;;;;;4966962;28;20062;-69
2023/01/15 05:06:13;;;;;;;16.77;2.25;;;;;;;;;;4966470;28;20149;-69
2023/01/15 05:08:40;;;;;;;19.63;1.88;;;;;;;;;;4967895;28;20063;-69
2023/01/15 05:11:08;;;;;;;15.68;2.20;;;;;;;;;;4965983;28;20051;-70
2023/01/15 05:13:36;;;;;;;17.63;2.30;;;;;;;;;;4957849;28;20055;-70
2023/01/15 05:16:15;;;;;;;19.95;2.17;;;;;;;;;;4949722;29;20043;-69
2023/01/15 05:18:42;;;;;;;22.27;2.42;;;;;;;;;;4944198;28;20050;-70
2023/01/15 05:21:14;;;;;;;19.40;2.85;;;;;;;;;;4949704;28;20047;-70
2023/01/15 05:23:41;;;;;;;16.23;2.03;;;;;;;;;;4952430;28;20047;-69
2023/01/15 05:26:08;;;;;;;17.92;2.47;;;;;;;;;;4941876;29;20047;-69
2023/01/15 05:28:36;;;;;;;16.98;2.42;;;;;;;;;;4946392;29;20055;-70
2023/01/15 05:31:07;;;;;;;14.23;2.40;;;;;;;;;;4940856;29;20052;-69
2023/01/15 05:33:36;;;;;;;17.02;2.20;;;;;;;;;;4950621;28;20172;-70
2023/01/15 05:36:04;;;;;;;17.15;2.13;;;;;;;;;;4945473;29;20134;-70
2023/01/15 05:38:31;;;;;;;19.70;2.35;;;;;;;;;;4944722;29;20058;-70
2023/01/15 05:40:58;;;;;;;20.02;2.10;;;;;;;;;;4928295;29;20154;-69
2023/01/15 05:43:25;;;;;;;18.85;2.05;;;;;;;;;;4954644;28;20126;-70
2023/01/15 05:45:53;;;;;;;14.32;1.75;;;;;;;;;;4943126;29;20052;-70
2023/01/15 05:48:20;;;;;;;15.93;2.13;;;;;;;;;;4948618;28;20054;-69
2023/01/15 05:50:48;;;;;;;20.23;2.35;;;;;;;;;;4947093;29;20055;-70
2023/01/15 05:53:16;;;;;;;18.05;2.47;;;;;;;;;;4947672;29;20054;-69
2023/01/15 05:55:43;;;;;;;20.90;2.08;;;;;;;;;;4948045;29;20056;-70
2023/01/15 05:58:10;;;;;;;17.08;2.15;;;;;;;;;;4949563;29;20524;-69
2023/01/15 06:00:37;;;;;;;20.38;2.50;;;;;;;;;;4946547;29;20058;-70
2023/01/15 06:03:04;;;;;;;18.67;2.63;;;;;;;;;;4936561;29;20518;-69
2023/01/15 06:05:32;;;;;;;22.08;2.47;;;;;;;;;;4946793;29;20542;-70
2023/01/15 06:08:00;;;;;;;17.63;2.47;;;;;;;;;;4946317;29;20051;-69
2023/01/15 06:10:27;;;;;;;20.45;2.08;;;;;;;;;;4943053;29;20058;-69
2023/01/15 06:12:55;;;;;;;16.70;2.92;;;;;;;;;;4949061;28;20058;-69
2023/01/15 06:15:22;;;;;;;19.70;2.00;;;;;;;;;;4970205;28;20498;-70
2023/01/15 06:17:50;;;;;;;16.95;2.72;;;;;;;;;;4969630;28;20058;-70
2023/01/15 06:20:17;;;;;;;13.52;2.15;;;;;;;;;;4965759;28;20485;-70
2023/01/15 06:22:45;;;;;;;15.35;2.10;;;;;;;;;;4972872;28;20047;-70
2023/01/15 06:25:13;;;;;;;15.85;1.88;;;;;;;;;;4972406;28;20516;-69
2023/01/15 06:27:43;;;;;;;21.95;2.70;;;;;;;;;;4964246;28;20050;-70
2023/01/15 06:30:11;;;;;;;12.15;1.48;;;;;;;;;;4963952;28;20068;-69
2023/01/15 06:32:38;;;;;;;14.05;2.05;;;;;;;;;;4964833;28;20059;-69
2023/01/15 06:35:06;;;;;;;15.65;1.85;;;;;;;;;;4969158;28;20061;-70
2023/01/15 06:37:33;;;;;;;13.38;1.40;;;;;;;;;;4968852;28;20051;-69
2023/01/15 06:40:00;;;;;;;17.65;2.17;;;;;;;;;;4971785;28;20144;-69
2023/01/15 06:47:59;;;;;;;18.70;1.83;;;;;;;;;;4965608;28;20047;-70
2023/01/15 06:50:26;;;;;;;15.95;2.38;;;;;;;;;;4966930;28;20065;-70
2023/01/15 06:52:53;;;;;;;15.18;2.13;;;;;;;;;;4967115;28;20050;-71
2023/01/15 06:55:22;;;;;;;10.63;1.60;;;;;;;;;;4969611;28;21179;-69
2023/01/15 06:57:51;;;;;;;18.52;2.78;;;;;;;;;;4970738;28;20053;-69
2023/01/15 07:00:19;;;;;;;22.48;1.85;;;;;;;;;;4969355;28;20044;-71
2023/01/15 07:02:46;;;;;;;14.40;2.15;;;;;;;;;;4966013;28;20379;-69
2023/01/15 07:05:13;;;;;;;15.23;2.15;;;;;;;;;;4965275;28;20062;-72
2023/01/15 07:07:40;;;;;;;17.67;1.40;;;;;;;;;;4966665;28;20135;-71
2023/01/15 07:10:08;;;;;;;14.48;1.63;;;;;;;;;;4961306;28;20054;-69
2023/01/15 07:12:35;;;;;;;18.13;1.90;;;;;;;;;;4960833;28;20066;-75
2023/01/15 07:15:04;;;;;;;15.00;1.80;;;;;;;;;;4967995;28;20090;-73
2023/01/15 07:17:31;;;;;;;22.08;2.58;;;;;;;;;;4961512;28;20054;-73
2023/01/15 07:19:59;;;;;;;17.70;2.53;;;;;;;;;;4967323;28;20051;-74
2023/01/15 07:22:26;;;;;;;18.70;2.28;;;;;;;;;;4969431;28;20113;-73
2023/01/15 07:24:53;;;;;;;13.65;1.85;;;;;;;;;;4962362;28;20386;-71
2023/01/15 07:27:20;;;;;;;11.50;1.98;;;;;;;;;;4967876;28;20047;-73
2023/01/15 07:29:48;;;;;;;17.63;2.85;;;;;;;;;;4967293;28;20506;-72
2023/01/15 07:32:17;;;;;;;20.30;2.50;;;;;;;;;;4968063;28;20061;-71
2023/01/15 07:34:44;;;;;;;15.38;1.65;;;;;;;;;;4966476;28;20586;-72
2023/01/15 07:37:11;;;;;;;11.80;1.92;;;;;;;;;;4968872;28;20050;-73
2023/01/15 07:39:38;;;;;;;14.52;1.85;;;;;;;;;;4967834;28;20050;-72
2023/01/15 07:50:22;;;;;;;19.60;2.13;;;;;;;;;;4968683;28;20347;-71
2023/01/15 07:52:50;;;;;;;18.58;2.22;;;;;;;;;;4968141;28;20109;-72
2023/01/15 07:55:17;;;;;;;18.35;2.22;;;;;;;;;;4964655;28;20050;-71
2023/01/15 07:57:44;;;;;;;18.50;2.30;;;;;;;;;;4965684;28;20063;-71
2023/01/15 08:00:13;;;;;;;15.93;1.92;;;;;;;;;;4963168;28;20042;-72
2023/01/15 08:02:43;;;;;;;11.73;1.98;;;;;;;;;;4967670;28;20055;-72
2023/01/15 08:05:11;;;;;;;16.38;2.20;;;;;;;;;;4959003;28;20094;-72
2023/01/15 08:07:39;;;;;;;17.67;2.35;;;;;;;;;;4966451;28;20043;-73
2023/01/15 08:10:07;;;;;;;18.20;2.28;;;;;;;;;;4960750;28;20055;-73
2023/01/15 08:15:19;;;;;;;14.05;2.40;;;;;;;;;;4974050;28;20062;-72
2023/01/15 08:17:48;;;;;;;15.23;1.48;;;;;;;;;;4965129;28;20178;-72
2023/01/15 08:20:16;;;;;;;21.00;2.38;;;;;;;;;;4967028;28;20051;-72
2023/01/15 08:22:44;;;;;;;13.50;1.63;;;;;;;;;;4968940;28;20062;-72
2023/01/15 08:25:14;;;;;;;18.77;2.15;;;;;;;;;;4966350;28;20050;-71
2023/01/15 08:27:41;;;;;;;12.05;1.63;;;;;;;;;;4979958;28;20058;-70
2023/01/15 08:30:09;;;;;;;29.75;2.92;;;;;;;;;;4966515;28;20058;-72
2023/01/15 08:32:37;;;;;;;15.68;1.95;;;;;;;;;;4965206;28;20054;-72
2023/01/15 08:35:06;;;;;;;14.80;1.77;;;;;;;;;;4966789;28;20046;-72
2023/01/15 08:37:33;;;;;;;22.83;2.65;;;;;;;;;;4965265;28;20059;-70
2023/01/15 08:40:00;;;;;;;15.05;2.20;;;;;;;;;;4964658;28;20062;-73
2023/01/15 08:42:27;;;;;;;20.38;3.13;;;;;;;;;;4966540;28;20047;-72
2023/01/15 08:44:55;;;;;;;17.58;2.17;;;;;;;;;;4966775;28;20066;-72
2023/01/15 08:47:22;;;;;;;16.33;1.92;;;;;;;;;;4968429;28;20039;-72
2023/01/15 08:49:49;;;;;;;18.63;2.10;;;;;;;;;;4966428;28;20054;-72
2023/01/15 08:52:18;;;;;;;23.10;2.42;;;;;;;;;;4958654;28;20062;-73
2023/01/15 08:54:45;;;;;;;13.95;2.00;;;;;;;;;;4964686;28;20055;-71
2023/01/15 08:57:12;;;;;;;16.35;2.28;;;;;;;;;;4964171;28;20047;-71
2023/01/15 08:59:41;;;;;;;21.13;2.35;;;;;;;;;;4969897;28;20051;-71
2023/01/15 09:02:10;;;;;;;17.92;2.63;;;;;;;;;;4960115;28;20137;-71
2023/01/15 09:04:38;;;;;;;26.95;2.83;;;;;;;;;;4958674;28;20050;-70
2023/01/15 09:07:05;;;;;;;13.90;2.30;;;;;;;;;;4958826;28;20389;-71
2023/01/15 09:09:34;;;;;;;15.98;2.30;;;;;;;;;;4959955;28;20051;-71
2023/01/15 09:12:01;;;;;;;13.02;2.35;;;;;;;;;;4956451;28;20605;-70
2023/01/15 09:14:28;;;;;;;19.05;2.60;;;;;;;;;;4943123;28;20062;-70
2023/01/15 09:16:56;;;;;;;17.65;2.20;;;;;;;;;;4942111;29;20079;-71
2023/01/15 09:19:23;;;;;;;22.02;3.30;;;;;;;;;;4937132;29;20048;-71
2023/01/15 09:21:51;;;;;;;20.63;2.30;;;;;;;;;;4941184;28;20048;-71
2023/01/15 09:24:18;;;;;;;13.73;2.17;;;;;;;;;;4942713;28;20409;-71
2023/01/15 09:26:46;;;;;;;22.52;2.30;;;;;;;;;;4924837;29;20067;-70
2023/01/15 09:29:14;;;;;;;14.93;2.92;;;;;;;;;;4935086;29;20051;-70
2023/01/15 09:31:41;;;;;;;14.65;1.95;;;;;;;;;;4942916;29;20058;-70
2023/01/15 09:34:09;;;;;;;17.55;2.05;;;;;;;;;;4925074;29;20516;-70
2023/01/15 09:36:36;;;;;;;21.67;2.63;;;;;;;;;;4940768;29;20078;-69
2023/01/15 09:39:04;;;;;;;17.08;2.03;;;;;;;;;;4946338;29;20055;-70
2023/01/15 09:44:28;;;;;;;23.77;2.65;;;;;;;;;;4944698;29;20047;-71
2023/01/15 09:47:01;;;;;;;19.77;2.78;;;;;;;;;;4948191;29;20052;-70
2023/01/15 09:49:34;;;;;;;25.40;2.20;;;;;;;;;;4949504;29;20482;-71
2023/01/15 09:52:07;;;;;;;17.48;2.65;;;;;;;;;;4944149;28;20055;-71
2023/01/15 09:54:41;;;;;;;12.20;1.67;;;;;;;;;;4954000;29;20062;-71
2023/01/15 09:57:11;;;;;;;12.75;2.15;;;;;;;;;;4944094;29;20411;-71
2023/01/15 09:59:41;;;;;;;14.63;1.33;;;;;;;;;;4949421;29;20054;-70
2023/01/15 10:02:17;;;;;;;13.45;1.60;;;;;;;;;;4951340;29;20051;-70
2023/01/15 10:04:46;;;;;;;21.10;1.92;;;;;;;;;;4928985;29;20052;-70
2023/01/15 10:07:17;;;;;;;20.67;2.33;;;;;;;;;;4947904;29;20058;-71
2023/01/15 10:09:45;;;;;;;23.65;3.08;;;;;;;;;;4947227;29;20058;-71
2023/01/15 10:12:35;;;;;;;23.40;2.60;;;;;;;;;;4950191;29;20114;-70
2023/01/15 10:15:08;;;;;;;20.67;3.22;;;;;;;;;;4968699;28;20043;-70
2023/01/15 10:17:40;;;;;;;14.48;2.60;;;;;;;;;;4969862;28;20494;-70
2023/01/15 10:20:13;;;;;;;19.02;2.13;;;;;;;;;;4968406;28;20065;-70
2023/01/15 10:22:46;;;;;;;21.95;2.92;;;;;;;;;;4969116;28;20054;-70
2023/01/15 10:25:16;;;;;;;19.48;3.15;;;;;;;;;;4968205;28;20051;-70
2023/01/15 10:27:45;;;;;;;28.10;3.25;;;;;;;;;;4960726;28;20055;-70
2023/01/15 10:30:16;;;;;;;22.02;2.33;;;;;;;;;;4970902;28;20051;-70
2023/01/15 10:32:47;;;;;;;19.98;3.22;;;;;;;;;;4964403;28;20055;-70
2023/01/15 10:35:24;;;;;;;27.23;2.95;;;;;;;;;;4969068;28;20478;-70
2023/01/15 10:37:54;;;;;;;22.73;2.70;;;;;;;;;;4969072;28;20055;-70
2023/01/15 10:40:29;;;;;;;23.50;2.80;;;;;;;;;;4972222;28;20058;-70
2023/01/15 10:42:58;;;;;;;17.67;2.47;;;;;;;;;;4969097;28;20050;-70
2023/01/15 10:45:29;;;;;;;23.08;2.72;;;;;;;;;;4963603;28;20667;-70
2023/01/15 10:48:01;;;;;;;22.55;3.60;;;;;;;;;;4960210;28;20050;-70
2023/01/15 10:50:29;;;;;;;19.55;2.97;;;;;;;;;;4962678;28;20063;-70
2023/01/15 10:53:02;;;;;;;15.73;2.20;;;;;;;;;;4967701;28;20577;-70
2023/01/15 10:55:31;;;;;;;22.80;3.08;;;;;;;;;;4958998;28;20059;-71
2023/01/15 10:58:04;;;;;;;24.38;3.75;;;;;;;;;;4970286;28;20054;-70
2023/01/15 11:00:33;;;;;;;18.27;2.53;;;;;;;;;;4964561;28;20054;-70
2023/01/15 11:03:03;;;;;;;18.67;2.60;;;;;;;;;;4963484;28;20486;-70
2023/01/15 11:05:32;;;;;;;25.60;3.53;;;;;;;;;;4965019;28;20050;-71
2023/01/15 11:08:00;;;;;;;18.83;2.00;;;;;;;;;;4966131;28;20081;-71
2023/01/15 11:10:27;;;;;;;19.05;2.75;;;;;;;;;;4961602;28;20051;-71
2023/01/15 11:21:20;;;;;;;23.55;3.42;;;;;;;;;;4965233;28;20581;-71
2023/01/15 11:23:48;;;;;;;24.38;3.15;;;;;;;;;;4968836;28;20047;-72
2023/01/15 11:26:18;;;;;;;20.77;2.97;;;;;;;;;;4967949;28;20042;-72
2023/01/15 11:28:46;;;;;;;22.85;2.85;;;;;;;;;;4969336;28;20055;-72
2023/01/15 11:31:15;;;;;;;19.42;2.65;;;;;;;;;;4968365;28;20085;-72
2023/01/15 11:33:45;;;;;;;25.20;3.00;;;;;;;;;;4965860;28;20057;-72
2023/01/15 11:36:20;;;;;;;26.25;3.47;;;;;;;;;;4963607;28;20051;-73
2023/01/15 11:38:48;;;;;;;32.45;3.00;;;;;;;;;;4969472;28;20055;-74
2023/01/15 11:41:21;;;;;;;28.60;2.75;;;;;;;;;;4964546;28;20073;-74
2023/01/15 11:52:13;;;;;;;22.85;2.60;;;;;;;;;;4982148;28;20062;-73
2023/01/15 11:54:42;;;;;;;27.15;3.10;;;;;;;;;;4962660;28;20525;-73
2023/01/15 11:57:10;;;;;;;19.15;2.60;;;;;;;;;;4965170;28;20054;-72
2023/01/15 11:59:38;;;;;;;24.67;3.55;;;;;;;;;;4964066;28;20042;-73
2023/01/15 12:02:13;;;;;;;22.45;2.60;;;;;;;;;;4960174;28;20532;-72
2023/01/15 12:04:46;;;;;;;24.13;2.67;;;;;;;;;;4965006;28;20105;-72
2023/01/15 12:07:14;;;;;;;19.45;2.03;;;;;;;;;;4969218;28;20055;-72
2023/01/15 12:09:48;;;;;;;18.48;2.90;;;;;;;;;;4957160;28;20051;-71
2023/01/15 12:12:20;;;;;;;26.35;3.13;;;;;;;;;;4962290;28;20050;-72
2023/01/15 12:14:55;;;;;;;31.20;3.28;;;;;;;;;;4946188;28;20051;-74
2023/01/15 12:17:35;;;;;;;26.20;3.65;;;;;;;;;;4941983;29;20077;-73
2023/01/15 12:20:09;;;;;;;31.98;4.03;;;;;;;;;;4925168;29;20051;-73
2023/01/15 12:22:43;;;;;;;27.45;5.10;;;;;;;;;;4931204;28;20059;-74
2023/01/15 12:25:24;;;;;;;37.65;4.07;;;;;;;;;;4924978;29;20051;-74
2023/01/15 12:28:03;;;;;;;35.95;3.67;;;;;;;;;;4929400;29;20486;-73
2023/01/15 12:30:38;;;;;;;22.70;3.55;;;;;;;;;;4931762;28;20054;-74
2023/01/15 12:33:16;;;;;;;33.65;3.97;;;;;;;;;;4931528;29;20063;-73
2023/01/15 12:35:45;;;;;;;40.30;4.00;;;;;;;;;;4929787;29;20047;-73
2023/01/15 12:38:17;;;;;;;25.33;4.05;;;;;;;;;;4926174;29;20070;-73
2023/01/15 12:40:46;;;;;;;31.95;2.88;;;;;;;;;;4927545;29;20518;-75
2023/01/15 12:46:01;;;;;;;27.00;3.50;;;;;;;;;;4928986;29;20410;-73
2023/01/15 12:48:32;;;;;;;27.92;2.70;;;;;;;;;;4931181;29;20532;-73
2023/01/15 12:51:00;;;;;;;18.55;2.80;;;;;;;;;;4932032;29;20048;-72
2023/01/15 12:53:30;;;;;;;14.77;1.65;;;;;;;;;;4949732;29;20052;-72
2023/01/15 12:56:00;;;;;;;10.65;1.58;;;;;;;;;;4946897;28;20082;-71
2023/01/15 12:58:34;;;;;;;10.55;1.20;;;;;;;;;;4924301;29;20055;-71
2023/01/15 13:01:04;;;;;;;14.48;1.50;;;;;;;;;;4947043;29;20055;-71
2023/01/15 13:03:35;;;;;;;14.43;1.73;;;;;;;;;;4941632;29;20157;-71
2023/01/15 13:06:07;;;;;;;18.52;2.53;;;;;;;;;;4945179;29;20058;-71
2023/01/15 13:08:36;;;;;;;19.83;2.70;;;;;;;;;;4944598;28;20102;-71
2023/01/15 13:11:04;;;;;;;18.67;1.88;;;;;;;;;;4943584;29;20083;-71
2023/01/15 13:13:33;;;;;;;15.45;1.58;;;;;;;;;;4938790;28;20055;-71
2023/01/15 13:16:07;;;;;;;15.63;1.85;;;;;;;;;;4963765;28;20141;-71
2023/01/15 13:18:39;;;;;;;14.98;1.65;;;;;;;;;;4964762;28;20069;-72
2023/01/15 13:21:10;;;;;;;19.67;2.25;;;;;;;;;;4955415;28;20051;-71
2023/01/15 13:23:45;;;;;;;18.55;2.22;;;;;;;;;;4967456;28;20058;-71
2023/01/15 13:26:16;;;;;;;29.15;3.63;;;;;;;;;;4970306;28;20126;-71
2023/01/15 13:29:01;;;;;;;22.52;2.80;;;;;;;;;;4972059;28;20058;-71
2023/01/15 13:31:39;;;;;;;20.08;2.10;;;;;;;;;;4970702;28;20121;-71
2023/01/15 13:34:11;;;;;;;19.33;1.85;;;;;;;;;;4971128;28;20043;-71
2023/01/15 13:36:40;;;;;;;15.45;2.10;;;;;;;;;;4968809;28;20046;-71
2023/01/15 13:39:09;;;;;;;25.25;2.63;;;;;;;;;;4973298;28;20059;-71
2023/01/15 13:44:22;;;;;;;31.80;3.35;;;;;;;;;;4979351;28;20039;-71
2023/01/15 13:46:59;;;;;;;32.55;3.67;;;;;;;;;;4965544;28;20043;-71
2023/01/15 13:49:30;;;;;;;25.83;3.60;;;;;;;;;;4963566;28;20051;-70
2023/01/15 13:52:03;;;;;;;33.03;5.50;;;;;;;;;;4968888;28;20138;-71
2023/01/15 13:54:31;;;;;;;21.33;2.38;;;;;;;;;;4968767;28;20503;-71
2023/01/15 13:57:07;;;;;;;22.40;2.30;;;;;;;;;;4961728;28;20437;-71
2023/01/15 13:59:43;;;;;;;23.17;2.78;;;;;;;;;;4965093;28;20499;-71
2023/01/15 14:02:34;;;;;;;20.10;2.55;;;;;;;;;;4964180;28;20569;-71
2023/01/15 14:05:13;;;;;;;19.10;2.58;;;;;;;;;;4944502;28;20399;-71
2023/01/15 14:07:40;;;;;;;22.33;3.22;;;;;;;;;;4963766;28;20047;-71
2023/01/15 14:10:21;;;;;;;28.63;3.58;;;;;;;;;;4961331;28;20248;-71
2023/01/15 14:12:52;;;;;;;18.17;2.50;;;;;;;;;;4978846;28;20531;-71
2023/01/15 14:15:25;;;;;;;19.38;3.55;;;;;;;;;;4965041;28;20138;-71
2023/01/15 14:18:16;;;;;;;20.57;2.57;;;;;;;;;;4970691;28;20066;-71
2023/01/15 14:20:53;;;;;;;21.52;2.28;;;;;;;;;;4970856;28;20066;-70
2023/01/15 14:23:29;;;;;;;24.58;2.70;;;;;;;;;;4968404;28;20525;-71
2023/01/15 14:26:01;;;;;;;19.65;2.65;;;;;;;;;;4968878;28;20063;-71
2023/01/15 14:28:37;;;;;;;20.40;2.95;;;;;;;;;;4970789;28;20070;-71
2023/01/15 14:31:33;;;;;;;21.20;3.28;;;;;;;;;;4968338;28;20054;-72
2023/01/15 14:34:13;;;;;;;24.30;2.53;;;;;;;;;;4966759;28;20063;-72
2023/01/15 14:36:46;;;;;;;34.65;3.45;;;;;;;;;;4970632;28;20074;-72
2023/01/15 14:39:23;;;;;;;18.35;2.97;;;;;;;;;;4967910;28;20054;-72
2023/01/15 14:44:42;;;;;;;22.88;3.63;;;;;;;;;;4967583;28;20059;-72
2023/01/15 14:47:19;;;;;;;29.85;3.13;;;;;;;;;;4963479;28;20050;-71
2023/01/15 14:49:48;;;;;;;;;;;;;;;;;;4972949;28;20051;-72
2023/01/15 14:52:17;;;;;;;19.90;2.20;;;;;;;;;;4968498;28;19922;-71
2023/01/15 14:54:44;;;;;;;17.38;2.85;;;;;;;;;;4968843;28;20050;-72
2023/01/15 14:57:14;;;;;;;23.52;2.35;;;;;;;;;;4967854;28;20046;-72
2023/01/15 14:59:45;;;;;;;22.67;3.20;;;;;;;;;;4965281;28;20050;-71
2023/01/15 15:02:15;;;;;;;21.02;2.55;;;;;;;;;;4962721;28;20134;-71
2023/01/15 15:04:45;;;;;;;24.73;2.70;;;;;;;;;;4963625;28;20053;-72
2023/01/15 15:07:13;;;;;;;26.10;2.47;;;;;;;;;;4960980;28;20055;-71
2023/01/15 15:09:43;;;;;;;24.23;2.72;;;;;;;;;;4960125;28;20138;-70
2023/01/15 15:12:20;;;;;;;17.88;2.45;;;;;;;;;;4966599;28;20050;-71
2023/01/15 15:14:50;;;;;;;27.27;3.17;;;;;;;;;;4963744;28;20054;-71
2023/01/15 15:17:20;;;;;;;30.60;3.50;;;;;;;;;;4961584;28;20062;-71
2023/01/15 15:19:51;;;;;;;35.45;3.20;;;;;;;;;;4964057;28;20047;-71
2023/01/15 15:22:20;;;;;;;20.63;2.53;;;;;;;;;;4970615;28;20054;-71
2023/01/15 15:24:50;;;;;;;22.17;3.63;;;;;;;;;;4968260;28;20098;-71
2023/01/15 15:27:17;;;;;;;25.25;2.75;;;;;;;;;;4970675;28;20043;-71
2023/01/15 15:29:45;;;;;;;13.27;2.30;;;;;;;;;;4966024;28;20055;-71
2023/01/15 15:32:15;;;;;;;16.15;2.00;;;;;;;;;;4971325;28;20567;-71
2023/01/15 15:34:45;;;;;;;18.50;2.17;;;;;;;;;;4968075;28;20062;-71
2023/01/15 15:37:17;;;;;;;16.00;2.92;;;;;;;;;;4963351;28;20054;-71
2023/01/15 15:39:49;;;;;;;23.58;3.15;;;;;;;;;;4966641;28;20059;-71
2023/01/15 15:50:32;;;;;;;18.33;3.13;;;;;;;;;;4963670;28;20043;-71